sensor_id;sensor_type;location;lat;lon;timestamp;pressure;altitude;pressure_sealevel;temperature;humidity
71716;BME280;59568;52.128;5.434;2023-01-29T00:02:10;103188.53;;;2.15;89.08
71716;BME280;59568;52.128;5.434;2023-01-29T00:04:37;103183.38;;;2.15;89.02
71716;BME280;59568;52.128;5.434;2023-01-29T00:07:03;103178.06;;;2.16;88.87
71716;BME280;59568;52.128;5.434;2023-01-29T00:09:30;103171.13;;;2.17;89.14
71716;BME280;59568;52.128;5.434;2023-01-29T00:11:57;103171.75;;;2.19;88.93
71716;BME280;59568;52.128;5.434;2023-01-29T00:14:25;103156.28;;;2.19;88.82
71716;BME280;59568;52.128;5.434;2023-01-29T00:16:53;103158.22;;;2.17;88.95
71716;BME280;59568;52.128;5.434;2023-01-29T00:19:20;103146.31;;;2.16;88.84
71716;BME280;59568;52.128;5.434;2023-01-29T00:21:47;103141.78;;;2.18;89.00
71716;BME280;59568;52.128;5.434;2023-01-29T00:24:14;103141.16;;;2.16;89.01
71716;BME280;59568;52.128;5.434;2023-01-29T00:26:40;103135.22;;;2.15;88.75
71716;BME280;59568;52.128;5.434;2023-01-29T00:29:08;103136.00;;;2.16;88.90
71716;BME280;59568;52.128;5.434;2023-01-29T00:31:35;103130.84;;;2.16;89.13
71716;BME280;59568;52.128;5.434;2023-01-29T00:34:02;103127.63;;;2.14;89.01
71716;BME280;59568;52.128;5.434;2023-01-29T00:36:29;103137.94;;;2.14;89.18
71716;BME280;59568;52.128;5.434;2023-01-29T00:38:58;103140.69;;;2.12;89.11
71716;BME280;59568;52.128;5.434;2023-01-29T00:41:30;103146.66;;;2.13;89.34
71716;BME280;59568;52.128;5.434;2023-01-29T00:44:16;103145.84;;;2.12;89.05
71716;BME280;59568;52.128;5.434;2023-01-29T00:47:03;103142.63;;;2.10;89.22
71716;BME280;59568;52.128;5.434;2023-01-29T00:49:30;103140.69;;;2.12;89.49
71716;BME280;59568;52.128;5.434;2023-01-29T00:51:57;103125.38;;;2.11;89.06
71716;BME280;59568;52.128;5.434;2023-01-29T00:54:42;103140.69;;;2.12;89.28
71716;BME280;59568;52.128;5.434;2023-01-29T00:57:09;103141.50;;;2.13;89.31
71716;BME280;59568;52.128;5.434;2023-01-29T00:59:36;103131.16;;;2.13;89.07
71716;BME280;59568;52.128;5.434;2023-01-29T01:02:03;103130.53;;;2.11;89.25
71716;BME280;59568;52.128;5.434;2023-01-29T01:04:49;103124.75;;;2.09;89.13
71716;BME280;59568;52.128;5.434;2023-01-29T01:07:16;103123.78;;;2.10;89.32
71716;BME280;59568;52.128;5.434;2023-01-29T01:09:42;103122.81;;;2.11;89.13
71716;BME280;59568;52.128;5.434;2023-01-29T01:12:28;103124.59;;;2.10;89.72
71716;BME280;59568;52.128;5.434;2023-01-29T01:14:55;103121.84;;;2.12;89.57
71716;BME280;59568;52.128;5.434;2023-01-29T01:17:22;103111.69;;;2.10;89.49
71716;BME280;59568;52.128;5.434;2023-01-29T01:19:49;103111.69;;;2.10;89.84
71716;BME280;59568;52.128;5.434;2023-01-29T01:22:16;103109.75;;;2.12;89.53
71716;BME280;59568;52.128;5.434;2023-01-29T01:24:43;103114.91;;;2.12;89.36
71716;BME280;59568;52.128;5.434;2023-01-29T01:27:10;103107.31;;;2.11;89.42
71716;BME280;59568;52.128;5.434;2023-01-29T01:29:37;103109.75;;;2.12;89.28
71716;BME280;59568;52.128;5.434;2023-01-29T01:32:05;103114.72;;;2.14;89.79
71716;BME280;59568;52.128;5.434;2023-01-29T01:34:32;103122.63;;;2.12;89.47
71716;BME280;59568;52.128;5.434;2023-01-29T01:36:59;103129.56;;;2.12;89.52
71716;BME280;59568;52.128;5.434;2023-01-29T01:39:26;103120.06;;;2.12;89.70
71716;BME280;59568;52.128;5.434;2023-01-29T01:41:53;103129.22;;;2.15;89.26
71716;BME280;59568;52.128;5.434;2023-01-29T01:48:09;103126.63;;;2.15;89.87
71716;BME280;59568;52.128;5.434;2023-01-29T01:51:04;103134.38;;;2.15;89.71
71716;BME280;59568;52.128;5.434;2023-01-29T01:56:07;103125.84;;;2.14;89.83
71716;BME280;59568;52.128;5.434;2023-01-29T01:58:41;103128.44;;;2.14;89.56
71716;BME280;59568;52.128;5.434;2023-01-29T02:01:10;103130.03;;;2.15;89.87
71716;BME280;59568;52.128;5.434;2023-01-29T02:03:46;103122.13;;;2.17;89.80
71716;BME280;59568;52.128;5.434;2023-01-29T02:06:35;103125.69;;;2.16;89.50
71716;BME280;59568;52.128;5.434;2023-01-29T02:09:31;103123.09;;;2.16;89.75
71716;BME280;59568;52.128;5.434;2023-01-29T02:12:10;103119.72;;;2.15;89.57
71716;BME280;59568;52.128;5.434;2023-01-29T02:14:39;103123.09;;;2.16;89.78
71716;BME280;59568;52.128;5.434;2023-01-29T02:17:12;103123.91;;;2.16;89.75
71716;BME280;59568;52.128;5.434;2023-01-29T02:30:55;103125.69;;;2.16;89.69
71716;BME280;59568;52.128;5.434;2023-01-29T02:36:30;103127.28;;;2.17;89.90
71716;BME280;59568;52.128;5.434;2023-01-29T02:47:20;103148.22;;;2.22;89.85
71716;BME280;59568;52.128;5.434;2023-01-29T02:50:33;103147.56;;;2.20;89.40
71716;BME280;59568;52.128;5.434;2023-01-29T02:53:09;103142.41;;;2.20;89.74
71716;BME280;59568;52.128;5.434;2023-01-29T02:55:56;103142.41;;;2.20;89.60
71716;BME280;59568;52.128;5.434;2023-01-29T02:59:05;103140.47;;;2.22;89.72
71716;BME280;59568;52.128;5.434;2023-01-29T03:01:47;103144.00;;;2.21;89.46
71716;BME280;59568;52.128;5.434;2023-01-29T03:04:25;103135.31;;;2.22;89.70
71716;BME280;59568;52.128;5.434;2023-01-29T03:06:59;103129.97;;;2.24;89.17
71716;BME280;59568;52.128;5.434;2023-01-29T03:09:47;103126.56;;;2.23;89.36
71716;BME280;59568;52.128;5.434;2023-01-29T03:12:22;103126.41;;;2.25;89.41
71716;BME280;59568;52.128;5.434;2023-01-29T03:15:02;103131.41;;;2.26;89.55
71716;BME280;59568;52.128;5.434;2023-01-29T03:17:54;103122.06;;;2.25;89.57
71716;BME280;59568;52.128;5.434;2023-01-29T03:20:27;103121.09;;;2.26;89.57
71716;BME280;59568;52.128;5.434;2023-01-29T03:23:02;103117.09;;;2.24;89.33
71716;BME280;59568;52.128;5.434;2023-01-29T03:25:33;103105.94;;;2.23;89.46
71716;BME280;59568;52.128;5.434;2023-01-29T03:28:20;103109.50;;;2.22;89.57
71716;BME280;59568;52.128;5.434;2023-01-29T03:31:09;103106.56;;;2.25;89.83
71716;BME280;59568;52.128;5.434;2023-01-29T03:34:15;103100.78;;;2.23;89.79
71716;BME280;59568;52.128;5.434;2023-01-29T03:36:53;103088.88;;;2.22;89.89
71716;BME280;59568;52.128;5.434;2023-01-29T03:39:25;103085.31;;;2.23;90.04
71716;BME280;59568;52.128;5.434;2023-01-29T03:47:26;103075.34;;;2.20;89.58
71716;BME280;59568;52.128;5.434;2023-01-29T03:50:08;103076.31;;;2.19;89.81
71716;BME280;59568;52.128;5.434;2023-01-29T03:52:46;103071.16;;;2.19;89.87
71716;BME280;59568;52.128;5.434;2023-01-29T03:55:23;103072.78;;;2.20;89.81
71716;BME280;59568;52.128;5.434;2023-01-29T04:00:31;103067.00;;;2.18;89.91
71716;BME280;59568;52.128;5.434;2023-01-29T04:05:44;103069.56;;;2.18;89.99
71716;BME280;59568;52.128;5.434;2023-01-29T04:08:19;103068.56;;;2.19;90.37
71716;BME280;59568;52.128;5.434;2023-01-29T04:10:49;103062.63;;;2.18;89.96
71716;BME280;59568;52.128;5.434;2023-01-29T04:13:18;103051.69;;;2.16;89.72
71716;BME280;59568;52.128;5.434;2023-01-29T04:15:57;103053.47;;;2.16;89.99
71716;BME280;59568;52.128;5.434;2023-01-29T04:18:25;103038.16;;;2.14;90.14
71716;BME280;59568;52.128;5.434;2023-01-29T04:20:52;103053.78;;;2.13;90.17
71716;BME280;59568;52.128;5.434;2023-01-29T04:23:25;103054.63;;;2.13;90.05
71716;BME280;59568;52.128;5.434;2023-01-29T04:26:18;103050.25;;;2.14;89.94
71716;BME280;59568;52.128;5.434;2023-01-29T04:29:19;103044.31;;;2.13;90.13
71716;BME280;59568;52.128;5.434;2023-01-29T04:32:02;103047.84;;;2.12;89.97
71716;BME280;59568;52.128;5.434;2023-01-29T04:40:42;103043.84;;;2.10;89.94
71716;BME280;59568;52.128;5.434;2023-01-29T04:43:33;103038.69;;;2.10;89.69
71716;BME280;59568;52.128;5.434;2023-01-29T04:46:26;103041.25;;;2.10;89.92
71716;BME280;59568;52.128;5.434;2023-01-29T04:49:08;103033.53;;;2.10;89.70
71716;BME280;59568;52.128;5.434;2023-01-29T04:51:46;103038.69;;;2.10;90.10
71716;BME280;59568;52.128;5.434;2023-01-29T04:54:33;103031.91;;;2.09;89.84
71716;BME280;59568;52.128;5.434;2023-01-29T04:59:47;103027.28;;;2.04;89.80
71716;BME280;59568;52.128;5.434;2023-01-29T05:02:18;103020.34;;;2.05;89.57
71716;BME280;59568;52.128;5.434;2023-01-29T05:04:47;103020.34;;;2.05;89.37
71716;BME280;59568;52.128;5.434;2023-01-29T05:07:16;103020.50;;;2.03;89.66
71716;BME280;59568;52.128;5.434;2023-01-29T05:09:45;103014.56;;;2.03;89.49
71716;BME280;59568;52.128;5.434;2023-01-29T05:12:14;103014.56;;;2.03;89.56
71716;BME280;59568;52.128;5.434;2023-01-29T05:14:44;103013.94;;;2.00;89.47
71716;BME280;59568;52.128;5.434;2023-01-29T05:17:15;103018.28;;;2.00;89.27
71716;BME280;59568;52.128;5.434;2023-01-29T05:19:44;103019.88;;;2.01;89.17
71716;BME280;59568;52.128;5.434;2023-01-29T05:22:15;103018.44;;;1.98;89.27
71716;BME280;59568;52.128;5.434;2023-01-29T05:24:42;103014.28;;;1.97;89.00
71716;BME280;59568;52.128;5.434;2023-01-29T05:27:22;103022.97;;;1.96;89.14
71716;BME280;59568;52.128;5.434;2023-01-29T05:30:10;103028.13;;;1.96;89.42
71716;BME280;59568;52.128;5.434;2023-01-29T05:32:37;103025.72;;;1.95;89.14
71716;BME280;59568;52.128;5.434;2023-01-29T05:35:05;103031.25;;;1.92;89.20
71716;BME280;59568;52.128;5.434;2023-01-29T05:37:32;103032.03;;;1.92;89.02
71716;BME280;59568;52.128;5.434;2023-01-29T05:39:59;103018.19;;;1.93;89.16
71716;BME280;59568;52.128;5.434;2023-01-29T05:42:26;103028.50;;;1.93;88.76
71716;BME280;59568;52.128;5.434;2023-01-29T05:44:53;103024.94;;;1.94;88.76
71716;BME280;59568;52.128;5.434;2023-01-29T05:47:20;103023.16;;;1.95;88.81
71716;BME280;59568;52.128;5.434;2023-01-29T05:49:47;103027.69;;;1.93;88.88
71716;BME280;59568;52.128;5.434;2023-01-29T05:52:14;103034.44;;;1.94;88.81
71716;BME280;59568;52.128;5.434;2023-01-29T05:54:41;103033.28;;;1.96;89.03
71716;BME280;59568;52.128;5.434;2023-01-29T05:57:07;103023.97;;;1.95;88.58
71716;BME280;59568;52.128;5.434;2023-01-29T05:59:34;103010.44;;;1.93;89.06
71716;BME280;59568;52.128;5.434;2023-01-29T06:02:01;103001.91;;;1.93;88.61
71716;BME280;59568;52.128;5.434;2023-01-29T06:04:28;103004.47;;;1.93;88.87
71716;BME280;59568;52.128;5.434;2023-01-29T06:06:55;102998.53;;;1.92;88.91
71716;BME280;59568;52.128;5.434;2023-01-29T06:09:22;102989.19;;;1.91;88.90
71716;BME280;59568;52.128;5.434;2023-01-29T06:11:49;102996.94;;;1.91;88.65
71716;BME280;59568;52.128;5.434;2023-01-29T06:14:16;102988.38;;;1.91;88.63
71716;BME280;59568;52.128;5.434;2023-01-29T06:16:43;102991.59;;;1.93;88.76
71716;BME280;59568;52.128;5.434;2023-01-29T06:19:09;102993.53;;;1.91;88.79
71716;BME280;59568;52.128;5.434;2023-01-29T06:21:36;102987.59;;;1.90;88.76
71716;BME280;59568;52.128;5.434;2023-01-29T06:24:03;102985.00;;;1.90;88.51
71716;BME280;59568;52.128;5.434;2023-01-29T06:26:30;102988.56;;;1.89;88.66
71716;BME280;59568;52.128;5.434;2023-01-29T06:28:57;102981.78;;;1.88;88.39
71716;BME280;59568;52.128;5.434;2023-01-29T06:31:24;102979.22;;;1.88;88.20
71716;BME280;59568;52.128;5.434;2023-01-29T06:34:06;102975.69;;;1.89;88.54
71716;BME280;59568;52.128;5.434;2023-01-29T06:36:33;102974.69;;;1.90;88.42
71716;BME280;59568;52.128;5.434;2023-01-29T06:39:00;102980.47;;;1.92;88.14
71716;BME280;59568;52.128;5.434;2023-01-29T06:41:26;102966.94;;;1.90;88.39
71716;BME280;59568;52.128;5.434;2023-01-29T06:43:54;102979.69;;;1.92;88.39
71716;BME280;59568;52.128;5.434;2023-01-29T06:46:21;102981.47;;;1.91;88.36
71716;BME280;59568;52.128;5.434;2023-01-29T06:48:48;102983.06;;;1.92;88.39
71716;BME280;59568;52.128;5.434;2023-01-29T06:51:14;102988.03;;;1.94;88.11
71716;BME280;59568;52.128;5.434;2023-01-29T06:53:41;102985.28;;;1.95;88.18
71716;BME280;59568;52.128;5.434;2023-01-29T06:56:11;102971.78;;;1.93;88.06
71716;BME280;59568;52.128;5.434;2023-01-29T06:58:38;102970.16;;;1.92;87.88
71716;BME280;59568;52.128;5.434;2023-01-29T07:01:07;102973.72;;;1.91;87.81
71716;BME280;59568;52.128;5.434;2023-01-29T07:03:35;102978.88;;;1.91;87.56
71716;BME280;59568;52.128;5.434;2023-01-29T07:06:03;102967.75;;;1.91;87.76
71716;BME280;59568;52.128;5.434;2023-01-29T07:08:30;102968.56;;;1.91;87.51
71716;BME280;59568;52.128;5.434;2023-01-29T07:10:58;102965.00;;;1.92;87.95
71716;BME280;59568;52.128;5.434;2023-01-29T07:13:26;102979.50;;;1.93;87.80
71716;BME280;59568;52.128;5.434;2023-01-29T07:15:53;102977.72;;;1.94;87.73
71716;BME280;59568;52.128;5.434;2023-01-29T07:18:20;102969.81;;;1.95;87.82
71716;BME280;59568;52.128;5.434;2023-01-29T07:20:47;102972.41;;;1.95;87.63
71716;BME280;59568;52.128;5.434;2023-01-29T07:23:14;102973.38;;;1.94;87.57
71716;BME280;59568;52.128;5.434;2023-01-29T07:25:42;102981.09;;;1.94;87.47
71716;BME280;59568;52.128;5.434;2023-01-29T07:28:09;102980.94;;;1.96;87.54
71716;BME280;59568;52.128;5.434;2023-01-29T07:30:36;102971.41;;;1.96;87.70
71716;BME280;59568;52.128;5.434;2023-01-29T07:33:05;102966.25;;;1.96;87.43
71716;BME280;59568;52.128;5.434;2023-01-29T07:35:41;102975.78;;;1.96;87.43
71716;BME280;59568;52.128;5.434;2023-01-29T07:38:09;102981.72;;;1.96;87.59
71716;BME280;59568;52.128;5.434;2023-01-29T07:40:36;102976.56;;;1.96;87.59
71716;BME280;59568;52.128;5.434;2023-01-29T07:43:05;102964.31;;;1.98;87.68
71716;BME280;59568;52.128;5.434;2023-01-29T07:45:35;102969.47;;;1.98;87.58
71716;BME280;59568;52.128;5.434;2023-01-29T07:48:03;102956.41;;;2.00;87.47
71716;BME280;59568;52.128;5.434;2023-01-29T07:50:32;102952.66;;;2.03;87.55
71716;BME280;59568;52.128;5.434;2023-01-29T07:53:00;102952.03;;;2.00;87.43
71716;BME280;59568;52.128;5.434;2023-01-29T07:55:27;102953.28;;;2.05;87.58
71716;BME280;59568;52.128;5.434;2023-01-29T07:57:55;102949.75;;;2.06;87.35
71716;BME280;59568;52.128;5.434;2023-01-29T08:00:22;102938.44;;;2.07;87.17
71716;BME280;59568;52.128;5.434;2023-01-29T08:02:49;102931.69;;;2.06;87.31
71716;BME280;59568;52.128;5.434;2023-01-29T08:05:16;102941.00;;;2.07;87.25
71716;BME280;59568;52.128;5.434;2023-01-29T08:07:43;102930.69;;;2.07;87.04
71716;BME280;59568;52.128;5.434;2023-01-29T08:10:20;102926.97;;;2.09;87.26
71716;BME280;59568;52.128;5.434;2023-01-29T08:12:58;102928.75;;;2.09;87.02
71716;BME280;59568;52.128;5.434;2023-01-29T08:15:26;102928.41;;;2.12;87.06
71716;BME280;59568;52.128;5.434;2023-01-29T08:17:54;102931.78;;;2.12;87.14
71716;BME280;59568;52.128;5.434;2023-01-29T08:20:24;102926.44;;;2.14;87.11
71716;BME280;59568;52.128;5.434;2023-01-29T08:23:02;102929.66;;;2.16;86.89
71716;BME280;59568;52.128;5.434;2023-01-29T08:25:30;102931.25;;;2.17;86.90
71716;BME280;59568;52.128;5.434;2023-01-29T08:28:00;102927.53;;;2.19;86.79
71716;BME280;59568;52.128;5.434;2023-01-29T08:30:30;102927.31;;;2.21;86.66
71716;BME280;59568;52.128;5.434;2023-01-29T08:32:57;102925.38;;;2.23;86.96
71716;BME280;59568;52.128;5.434;2023-01-29T08:35:24;102921.81;;;2.24;86.59
71716;BME280;59568;52.128;5.434;2023-01-29T08:37:52;102920.84;;;2.25;86.60
71716;BME280;59568;52.128;5.434;2023-01-29T08:40:20;102915.34;;;2.28;86.56
71716;BME280;59568;52.128;5.434;2023-01-29T08:42:47;102905.63;;;2.30;86.47
71716;BME280;59568;52.128;5.434;2023-01-29T08:45:14;102900.09;;;2.33;86.55
71716;BME280;59568;52.128;5.434;2023-01-29T08:47:48;102901.72;;;2.34;86.46
71716;BME280;59568;52.128;5.434;2023-01-29T08:50:16;102902.97;;;2.38;86.27
71716;BME280;59568;52.128;5.434;2023-01-29T08:52:44;102906.00;;;2.42;86.48
71716;BME280;59568;52.128;5.434;2023-01-29T08:55:12;102897.25;;;2.43;86.69
71716;BME280;59568;52.128;5.434;2023-01-29T08:57:39;102895.50;;;2.44;86.21
71716;BME280;59568;52.128;5.434;2023-01-29T09:00:07;102897.69;;;2.47;86.18
71716;BME280;59568;52.128;5.434;2023-01-29T09:02:37;102898.31;;;2.49;86.36
71716;BME280;59568;52.128;5.434;2023-01-29T09:05:04;102901.53;;;2.51;86.08
71716;BME280;59568;52.128;5.434;2023-01-29T09:07:32;102897.16;;;2.51;85.70
71716;BME280;59568;52.128;5.434;2023-01-29T09:09:59;102898.59;;;2.54;85.60
71716;BME280;59568;52.128;5.434;2023-01-29T09:12:26;102898.22;;;2.57;85.58
71716;BME280;59568;52.128;5.434;2023-01-29T09:14:52;102897.88;;;2.60;85.61
71716;BME280;59568;52.128;5.434;2023-01-29T09:17:20;102896.88;;;2.61;85.34
71716;BME280;59568;52.128;5.434;2023-01-29T09:19:47;102893.34;;;2.62;85.63
71716;BME280;59568;52.128;5.434;2023-01-29T09:22:13;102885.81;;;2.67;85.54
71716;BME280;59568;52.128;5.434;2023-01-29T09:24:40;102894.19;;;2.69;85.41
71716;BME280;59568;52.128;5.434;2023-01-29T09:27:07;102893.22;;;2.70;85.30
71716;BME280;59568;52.128;5.434;2023-01-29T09:29:35;102899.00;;;2.72;85.35
71716;BME280;59568;52.128;5.434;2023-01-29T09:32:04;102897.66;;;2.76;84.75
71716;BME280;59568;52.128;5.434;2023-01-29T09:34:32;102900.69;;;2.80;85.08
71716;BME280;59568;52.128;5.434;2023-01-29T09:36:59;102906.69;;;2.87;85.18
71716;BME280;59568;52.128;5.434;2023-01-29T09:39:26;102902.16;;;2.89;84.82
71716;BME280;59568;52.128;5.434;2023-01-29T09:47:18;102900.00;;;2.93;84.19
71716;BME280;59568;52.128;5.434;2023-01-29T09:49:48;102893.69;;;2.95;84.07
71716;BME280;59568;52.128;5.434;2023-01-29T09:52:23;102899.72;;;3.03;83.90
71716;BME280;59568;52.128;5.434;2023-01-29T09:57:27;102902.13;;;3.04;83.80
71716;BME280;59568;52.128;5.434;2023-01-29T09:59:54;102897.19;;;3.09;83.65
71716;BME280;59568;52.128;5.434;2023-01-29T10:08:12;102895.31;;;3.18;83.64
71716;BME280;59568;52.128;5.434;2023-01-29T10:10:47;102891.72;;;3.19;83.55
71716;BME280;59568;52.128;5.434;2023-01-29T10:16:19;102886.38;;;3.20;83.46
71716;BME280;59568;52.128;5.434;2023-01-29T10:27:04;102883.19;;;3.18;83.17
71716;BME280;59568;52.128;5.434;2023-01-29T10:29:40;102882.41;;;3.18;82.93
71716;BME280;59568;52.128;5.434;2023-01-29T10:32:13;102876.03;;;3.20;83.32
71716;BME280;59568;52.128;5.434;2023-01-29T10:34:45;102867.50;;;3.20;83.32
71716;BME280;59568;52.128;5.434;2023-01-29T10:37:17;102862.88;;;3.15;83.03
71716;BME280;59568;52.128;5.434;2023-01-29T10:39:45;102856.13;;;3.14;83.00
71716;BME280;59568;52.128;5.434;2023-01-29T10:42:33;102841.25;;;3.16;83.02
71716;BME280;59568;52.128;5.434;2023-01-29T10:50:49;102835.97;;;3.31;83.27
71716;BME280;59568;52.128;5.434;2023-01-29T11:01:41;102811.44;;;3.42;82.79
71716;BME280;59568;52.128;5.434;2023-01-29T11:04:10;102806.88;;;3.44;82.58
71716;BME280;59568;52.128;5.434;2023-01-29T11:06:38;102807.47;;;3.46;82.72
71716;BME280;59568;52.128;5.434;2023-01-29T11:09:27;102807.88;;;3.50;82.79
71716;BME280;59568;52.128;5.434;2023-01-29T11:12:12;102800.72;;;3.52;82.77
71716;BME280;59568;52.128;5.434;2023-01-29T11:14:53;102801.56;;;3.52;82.68
71716;BME280;59568;52.128;5.434;2023-01-29T11:17:24;102793.81;;;3.52;82.82
71716;BME280;59568;52.128;5.434;2023-01-29T11:19:52;102788.41;;;3.54;82.76
71716;BME280;59568;52.128;5.434;2023-01-29T11:22:24;102797.38;;;3.58;82.91
71716;BME280;59568;52.128;5.434;2023-01-29T11:25:18;102799.97;;;3.58;82.74
71716;BME280;59568;52.128;5.434;2023-01-29T11:27:56;102785.28;;;3.58;82.63
71716;BME280;59568;52.128;5.434;2023-01-29T11:30:38;102785.69;;;3.62;82.84
71716;BME280;59568;52.128;5.434;2023-01-29T11:35:34;102786.50;;;3.63;82.61
71716;BME280;59568;52.128;5.434;2023-01-29T11:38:08;102786.50;;;3.63;82.42
71716;BME280;59568;52.128;5.434;2023-01-29T11:40:38;102768.16;;;3.57;82.56
71716;BME280;59568;52.128;5.434;2023-01-29T11:43:21;102773.94;;;3.59;82.54
71716;BME280;59568;52.128;5.434;2023-01-29T11:45:51;102770.38;;;3.60;82.52
71716;BME280;59568;52.128;5.434;2023-01-29T11:48:21;102759.63;;;3.57;82.47
71716;BME280;59568;52.128;5.434;2023-01-29T11:50:55;102761.41;;;3.56;82.56
71716;BME280;59568;52.128;5.434;2023-01-29T11:53:39;102763.00;;;3.57;82.60
71716;BME280;59568;52.128;5.434;2023-01-29T11:56:48;102749.09;;;3.58;82.67
71716;BME280;59568;52.128;5.434;2023-01-29T11:59:42;102761.00;;;3.59;82.84
71716;BME280;59568;52.128;5.434;2023-01-29T12:02:24;102753.25;;;3.59;82.91
71716;BME280;59568;52.128;5.434;2023-01-29T12:04:57;102751.47;;;3.60;82.96
71716;BME280;59568;52.128;5.434;2023-01-29T12:07:26;102750.69;;;3.59;82.80
71716;BME280;59568;52.128;5.434;2023-01-29T12:09:56;102739.53;;;3.59;83.20
71716;BME280;59568;52.128;5.434;2023-01-29T12:12:32;102739.72;;;3.57;83.24
71716;BME280;59568;52.128;5.434;2023-01-29T12:15:16;102729.38;;;3.57;83.36
71716;BME280;59568;52.128;5.434;2023-01-29T12:18:01;102719.22;;;3.56;83.38
71716;BME280;59568;52.128;5.434;2023-01-29T12:23:54;102702.94;;;3.55;83.51
71716;BME280;59568;52.128;5.434;2023-01-29T12:27:11;102700.94;;;3.57;83.77
71716;BME280;59568;52.128;5.434;2023-01-29T12:29:54;102698.19;;;3.59;83.92
71716;BME280;59568;52.128;5.434;2023-01-29T12:32:43;102687.44;;;3.62;84.07
71716;BME280;59568;52.128;5.434;2023-01-29T12:35:42;102693.81;;;3.59;84.03
71716;BME280;59568;52.128;5.434;2023-01-29T12:38:20;102678.28;;;3.59;83.88
71716;BME280;59568;52.128;5.434;2023-01-29T12:43:57;102680.69;;;3.61;84.06
71716;BME280;59568;52.128;5.434;2023-01-29T12:46:30;102664.41;;;3.60;84.25
71716;BME280;59568;52.128;5.434;2023-01-29T12:49:02;102658.22;;;3.62;83.97
71716;BME280;59568;52.128;5.434;2023-01-29T12:51:41;102656.25;;;3.64;84.06
71716;BME280;59568;52.128;5.434;2023-01-29T12:54:18;102653.66;;;3.64;83.96
71716;BME280;59568;52.128;5.434;2023-01-29T12:56:50;102646.09;;;3.62;83.97
71716;BME280;59568;52.128;5.434;2023-01-29T12:59:40;102634.75;;;3.63;84.17
71716;BME280;59568;52.128;5.434;2023-01-29T13:02:22;102629.78;;;3.62;84.13
71716;BME280;59568;52.128;5.434;2023-01-29T13:05:16;102611.88;;;3.60;83.99
71716;BME280;59568;52.128;5.434;2023-01-29T13:07:47;102599.56;;;3.62;84.13
71716;BME280;59568;52.128;5.434;2023-01-29T13:10:20;102600.97;;;3.65;84.19
71716;BME280;59568;52.128;5.434;2023-01-29T13:15:41;102584.44;;;3.66;84.59
71716;BME280;59568;52.128;5.434;2023-01-29T13:18:31;102570.94;;;3.64;84.33
71716;BME280;59568;52.128;5.434;2023-01-29T13:21:00;102568.94;;;3.66;84.56
71716;BME280;59568;52.128;5.434;2023-01-29T13:23:33;102568.56;;;3.69;84.56
71716;BME280;59568;52.128;5.434;2023-01-29T13:26:01;102550.06;;;3.72;84.78
71716;BME280;59568;52.128;5.434;2023-01-29T13:28:29;102549.50;;;3.76;84.32
71716;BME280;59568;52.128;5.434;2023-01-29T13:31:10;102540.94;;;3.83;84.36
71716;BME280;59568;52.128;5.434;2023-01-29T13:33:41;102535.56;;;3.91;84.46
71716;BME280;59568;52.128;5.434;2023-01-29T13:36:28;102533.41;;;3.94;84.17
71716;BME280;59568;52.128;5.434;2023-01-29T13:39:07;102535.56;;;3.97;84.14
71716;BME280;59568;52.128;5.434;2023-01-29T13:41:37;102537.97;;;3.99;84.26
71716;BME280;59568;52.128;5.434;2023-01-29T13:44:17;102525.22;;;3.97;84.06
71716;BME280;59568;52.128;5.434;2023-01-29T13:46:54;102521.25;;;4.02;84.34
71716;BME280;59568;52.128;5.434;2023-01-29T13:49:41;102522.44;;;4.06;84.29
71716;BME280;59568;52.128;5.434;2023-01-29T13:52:28;102528.19;;;4.08;83.71
71716;BME280;59568;52.128;5.434;2023-01-29T13:55:03;102524.03;;;4.07;83.73
71716;BME280;59568;52.128;5.434;2023-01-29T14:08:05;102517.84;;;4.14;83.75
71716;BME280;59568;52.128;5.434;2023-01-29T14:10:33;102514.06;;;4.17;84.11
71716;BME280;59568;52.128;5.434;2023-01-29T14:15:32;102512.88;;;4.13;84.15
71716;BME280;59568;52.128;5.434;2023-01-29T14:18:18;102506.91;;;4.12;84.08
71716;BME280;59568;52.128;5.434;2023-01-29T14:23:31;102498.56;;;4.17;84.03
71716;BME280;59568;52.128;5.434;2023-01-29T14:26:00;102494.16;;;4.17;84.16
71716;BME280;59568;52.128;5.434;2023-01-29T14:28:31;102499.34;;;4.17;84.05
71716;BME280;59568;52.128;5.434;2023-01-29T14:31:00;102506.91;;;4.19;84.01
71716;BME280;59568;52.128;5.434;2023-01-29T14:33:34;102499.94;;;4.19;84.21
71716;BME280;59568;52.128;5.434;2023-01-29T14:36:20;102493.78;;;4.20;84.22
71716;BME280;59568;52.128;5.434;2023-01-29T14:38:49;102490.00;;;4.23;84.11
71716;BME280;59568;52.128;5.434;2023-01-29T14:41:29;102486.19;;;4.26;84.43
71716;BME280;59568;52.128;5.434;2023-01-29T14:47:01;102473.06;;;4.20;84.31
71716;BME280;59568;52.128;5.434;2023-01-29T14:49:50;102471.47;;;4.19;84.06
71716;BME280;59568;52.128;5.434;2023-01-29T14:52:20;102473.47;;;4.17;84.32
71716;BME280;59568;52.128;5.434;2023-01-29T14:54:49;102475.28;;;4.17;84.37
71716;BME280;59568;52.128;5.434;2023-01-29T14:57:17;102470.09;;;4.17;84.48
71716;BME280;59568;52.128;5.434;2023-01-29T14:59:57;102476.25;;;4.16;84.50
71716;BME280;59568;52.128;5.434;2023-01-29T15:02:46;102468.91;;;4.13;84.62
71716;BME280;59568;52.128;5.434;2023-01-29T15:05:35;102468.91;;;4.13;84.63
71716;BME280;59568;52.128;5.434;2023-01-29T15:11:08;102443.63;;;4.15;84.89
71716;BME280;59568;52.128;5.434;2023-01-29T15:14:17;102443.41;;;4.16;84.70
71716;BME280;59568;52.128;5.434;2023-01-29T15:17:03;102448.38;;;4.18;84.65
71716;BME280;59568;52.128;5.434;2023-01-29T15:19:36;102442.41;;;4.17;85.08
71716;BME280;59568;52.128;5.434;2023-01-29T15:22:16;102438.03;;;4.18;84.87
71716;BME280;59568;52.128;5.434;2023-01-29T15:24:45;102440.63;;;4.18;85.18
71716;BME280;59568;52.128;5.434;2023-01-29T15:27:17;102438.44;;;4.15;84.59
71716;BME280;59568;52.128;5.434;2023-01-29T15:30:05;102438.44;;;4.15;84.61
71716;BME280;59568;52.128;5.434;2023-01-29T15:32:38;102451.78;;;4.12;84.76
71716;BME280;59568;52.128;5.434;2023-01-29T15:35:16;102437.66;;;4.08;84.83